createdAt,value
2022-11-15T00:01:48.891Z,0.90
2022-11-15T00:04:34.928Z,1.10
2022-11-15T00:07:48.157Z,0.82
2022-11-15T00:10:26.431Z,1.10
2022-11-15T00:13:13.987Z,1.08
2022-11-15T00:16:01.062Z,1.02
2022-11-15T00:18:50.663Z,0.98
2022-11-15T00:21:37.263Z,1.27
2022-11-15T00:24:23.687Z,1.00
2022-11-15T00:27:10.361Z,0.93
2022-11-15T00:29:55.948Z,1.00
2022-11-15T00:32:41.841Z,1.05
2022-11-15T00:35:28.218Z,1.20
2022-11-15T00:38:13.651Z,0.90
2022-11-15T00:40:59.293Z,0.77
2022-11-15T00:43:45.053Z,1.40
2022-11-15T00:46:30.878Z,1.73
2022-11-15T00:49:16.695Z,1.00
2022-11-15T00:52:02.159Z,0.80
2022-11-15T00:54:47.531Z,0.90
2022-11-15T00:57:33.018Z,0.93
2022-11-15T01:00:18.866Z,0.82
2022-11-15T01:03:04.270Z,1.23
2022-11-15T01:05:50.099Z,1.15
2022-11-15T01:08:35.774Z,0.65
2022-11-15T01:11:21.450Z,0.70
2022-11-15T01:14:07.340Z,1.08
2022-11-15T01:16:52.892Z,0.80
2022-11-15T01:19:38.675Z,0.70
2022-11-15T01:22:24.221Z,0.90
2022-11-15T01:25:09.892Z,1.75
2022-11-15T01:27:55.699Z,1.40
2022-11-15T01:30:41.051Z,1.23
2022-11-15T01:33:27.277Z,1.85
2022-11-15T01:36:18.924Z,1.00
2022-11-15T01:39:04.776Z,0.88
2022-11-15T01:41:50.402Z,1.92
2022-11-15T01:44:43.920Z,1.02
2022-11-15T01:47:40.370Z,1.42
2022-11-15T01:50:31.630Z,1.20
2022-11-15T01:53:18.424Z,1.17
2022-11-15T01:56:07.761Z,0.82
2022-11-15T01:58:54.299Z,0.95
2022-11-15T02:01:40.154Z,1.23
2022-11-15T02:04:29.174Z,1.33
2022-11-15T02:07:18.578Z,1.40
2022-11-15T02:10:18.447Z,1.05
2022-11-15T02:13:04.248Z,1.20
2022-11-15T02:16:28.137Z,1.73
2022-11-15T02:19:35.450Z,0.98
2022-11-15T02:22:37.350Z,1.73
2022-11-15T02:25:50.351Z,1.40
2022-11-15T02:29:00.243Z,1.00
2022-11-15T02:32:07.710Z,0.90
2022-11-15T02:35:08.226Z,0.70
2022-11-15T02:37:59.032Z,0.95
2022-11-15T02:41:01.450Z,0.85
2022-11-15T02:43:59.021Z,0.68
2022-11-15T02:47:13.530Z,0.80
2022-11-15T02:50:12.912Z,0.90
2022-11-15T02:52:58.655Z,0.80
2022-11-15T02:55:55.995Z,0.85
2022-11-15T02:59:20.129Z,0.52
2022-11-15T03:02:33.375Z,1.10
2022-11-15T03:08:27.388Z,1.08
2022-11-15T03:11:16.460Z,0.70
2022-11-15T03:14:19.862Z,1.45
2022-11-15T03:17:18.001Z,1.20
2022-11-15T03:20:09.017Z,0.90
2022-11-15T03:22:59.558Z,0.90
2022-11-15T03:25:50.590Z,1.08
2022-11-15T03:28:49.548Z,0.70
2022-11-15T03:31:50.980Z,0.60
2022-11-15T03:34:41.786Z,0.57
2022-11-15T03:37:45.441Z,0.88
2022-11-15T03:40:40.981Z,1.30
2022-11-15T03:43:44.975Z,1.00
2022-11-15T03:46:39.857Z,0.70
2022-11-15T03:49:32.675Z,1.08
2022-11-15T03:52:20.180Z,1.35
2022-11-15T03:55:09.336Z,1.00
2022-11-15T03:57:59.575Z,0.75
2022-11-15T04:00:45.640Z,1.95
2022-11-15T04:03:31.531Z,1.60
2022-11-15T04:06:17.797Z,1.15
2022-11-15T04:09:04.316Z,1.42
2022-11-15T04:11:50.187Z,0.85
2022-11-15T04:14:35.804Z,1.20
2022-11-15T04:17:21.490Z,1.33
2022-11-15T04:20:32.361Z,1.05
2022-11-15T04:23:38.731Z,1.00
2022-11-15T04:26:24.834Z,0.70
2022-11-15T04:29:29.562Z,1.48
2022-11-15T04:32:15.376Z,2.33
2022-11-15T04:35:00.785Z,0.90
2022-11-15T04:37:49.393Z,1.90
2022-11-15T04:40:36.519Z,1.15
2022-11-15T04:43:21.787Z,1.80
2022-11-15T04:46:07.623Z,0.98
2022-11-15T04:48:58.261Z,1.27
2022-11-15T04:51:44.790Z,1.17
2022-11-15T04:54:30.979Z,1.23
2022-11-15T04:57:16.942Z,1.00
2022-11-15T05:00:07.141Z,1.33
2022-11-15T05:03:11.551Z,1.67
2022-11-15T05:05:58.092Z,1.75
2022-11-15T05:08:43.580Z,1.50
2022-11-15T05:11:29.166Z,2.00
2022-11-15T05:14:15.357Z,1.55
2022-11-15T05:17:01.040Z,1.70
2022-11-15T05:19:46.806Z,1.60
2022-11-15T05:22:32.494Z,1.67
2022-11-15T05:25:17.935Z,1.92
2022-11-15T05:28:03.825Z,1.92
2022-11-15T05:30:49.192Z,2.13
2022-11-15T05:33:37.093Z,2.42
2022-11-15T05:36:28.998Z,2.22
2022-11-15T05:39:14.503Z,1.92
2022-11-15T05:42:12.317Z,1.98
2022-11-15T05:45:00.076Z,2.10
2022-11-15T05:47:47.168Z,1.73
2022-11-15T05:50:33.341Z,1.27
2022-11-15T05:53:23.283Z,2.25
2022-11-15T05:56:10.828Z,1.48
2022-11-15T05:58:59.786Z,2.50
2022-11-15T06:01:46.170Z,3.05
2022-11-15T06:04:32.171Z,1.45
2022-11-15T06:07:17.984Z,2.13
2022-11-15T06:10:04.082Z,1.92
2022-11-15T06:12:58.107Z,1.58
2022-11-15T06:15:43.719Z,1.65
2022-11-15T06:18:29.286Z,3.03
2022-11-15T06:21:14.997Z,1.88
2022-11-15T06:24:00.737Z,2.20
2022-11-15T06:26:46.342Z,1.83
2022-11-15T06:29:31.859Z,2.72
2022-11-15T06:32:17.532Z,2.05
2022-11-15T06:35:03.357Z,1.95
2022-11-15T06:37:49.166Z,1.88
2022-11-15T06:40:36.522Z,1.98
2022-11-15T06:43:22.185Z,1.85
2022-11-15T06:46:08.220Z,1.75
2022-11-15T06:48:54.130Z,1.27
2022-11-15T06:51:39.449Z,1.70
2022-11-15T06:54:24.971Z,1.55
2022-11-15T06:57:11.503Z,1.67
2022-11-15T06:59:57.163Z,2.25
2022-11-15T07:02:42.987Z,2.25
2022-11-15T07:05:29.120Z,1.58
2022-11-15T07:08:14.725Z,2.10
2022-11-15T07:11:02.966Z,1.60
2022-11-15T07:13:48.471Z,2.72
2022-11-15T07:16:34.390Z,1.75
2022-11-15T07:19:20.104Z,1.95
2022-11-15T07:22:05.824Z,2.08
2022-11-15T07:24:51.609Z,1.92
2022-11-15T07:27:37.669Z,1.98
2022-11-15T07:30:24.475Z,1.83
2022-11-15T07:33:10.328Z,1.77
2022-11-15T07:35:59.245Z,2.17
2022-11-15T07:38:45.033Z,1.52
2022-11-15T07:41:30.967Z,3.05
2022-11-15T07:44:16.598Z,2.67
2022-11-15T07:47:01.977Z,1.40
2022-11-15T07:49:48.309Z,1.75
2022-11-15T07:52:33.772Z,1.67
2022-11-15T07:55:19.132Z,1.30
2022-11-15T07:58:12.192Z,1.15
2022-11-15T08:00:57.714Z,1.50
2022-11-15T08:03:43.672Z,1.45
2022-11-15T08:06:29.147Z,1.58
2022-11-15T08:09:14.664Z,1.65
2022-11-15T08:12:00.424Z,1.55
2022-11-15T08:14:45.877Z,1.70
2022-11-15T08:17:33.892Z,1.48
2022-11-15T08:20:20.599Z,1.63
2022-11-15T08:23:07.899Z,1.27
2022-11-15T08:25:53.862Z,2.03
2022-11-15T08:28:39.778Z,1.00
2022-11-15T08:31:25.766Z,1.08
2022-11-15T08:34:11.411Z,0.63
2022-11-15T08:36:56.884Z,0.85
2022-11-15T08:39:42.340Z,0.80
2022-11-15T08:42:27.629Z,0.90
2022-11-15T08:45:13.220Z,0.77
2022-11-15T08:47:58.872Z,0.70
2022-11-15T08:50:44.872Z,0.40
2022-11-15T08:53:30.821Z,0.82
2022-11-15T08:56:16.917Z,0.50
2022-11-15T08:59:02.682Z,0.88
2022-11-15T09:01:48.454Z,0.50
2022-11-15T09:04:34.431Z,0.65
2022-11-15T09:07:20.260Z,0.40
2022-11-15T09:10:06.477Z,0.50
2022-11-15T09:12:52.246Z,1.00
2022-11-15T09:15:37.697Z,0.40
2022-11-15T09:18:23.792Z,0.57
2022-11-15T09:21:10.249Z,0.20
2022-11-15T09:23:56.184Z,0.30
2022-11-15T09:26:42.551Z,0.50
2022-11-15T09:29:28.481Z,0.38
2022-11-15T09:32:14.051Z,0.20
2022-11-15T09:34:59.796Z,0.22
2022-11-15T09:37:45.858Z,0.20
2022-11-15T09:40:36.995Z,0.30
2022-11-15T09:43:39.810Z,0.20
2022-11-15T09:46:25.200Z,0.50
2022-11-15T09:49:13.058Z,0.47
2022-11-15T09:52:20.152Z,0.20
2022-11-15T09:54:53.990Z,0.43
2022-11-15T09:57:39.701Z,0.30
2022-11-15T10:03:08.809Z,0.30
2022-11-15T10:05:42.245Z,0.57
2022-11-15T10:08:31.621Z,0.38
2022-11-15T10:14:00.393Z,0.60
2022-11-15T10:16:33.424Z,0.82
2022-11-15T10:19:09.740Z,1.30
2022-11-15T10:21:59.997Z,0.52
2022-11-15T10:24:33.291Z,1.02
2022-11-15T10:27:01.559Z,1.40
2022-11-15T10:29:29.233Z,0.38
2022-11-15T10:31:56.333Z,0.60
2022-11-15T10:34:25.968Z,0.60
2022-11-15T10:37:01.786Z,0.77
2022-11-15T10:39:29.296Z,0.90
2022-11-15T10:41:58.031Z,0.80
2022-11-15T10:44:26.405Z,0.80
2022-11-15T10:46:56.634Z,0.90
2022-11-15T10:49:29.283Z,0.57
2022-11-15T10:52:01.266Z,0.38
2022-11-15T10:54:54.969Z,0.80
2022-11-15T10:57:31.794Z,0.47
2022-11-15T11:00:02.466Z,0.73
2022-11-15T11:02:38.154Z,0.60
2022-11-15T11:05:25.684Z,0.82
2022-11-15T11:08:22.381Z,0.85
2022-11-15T11:11:02.535Z,0.80
2022-11-15T11:13:39.516Z,0.98
2022-11-15T11:16:16.025Z,0.65
2022-11-15T11:19:05.028Z,0.90
2022-11-15T11:22:03.306Z,0.68
2022-11-15T11:25:00.422Z,0.43
2022-11-15T11:27:36.198Z,0.50
2022-11-15T11:30:21.575Z,0.93
2022-11-15T11:33:09.945Z,0.65
2022-11-15T11:36:07.870Z,0.50
2022-11-15T11:39:16.990Z,0.50
2022-11-15T11:42:02.884Z,0.45
2022-11-15T11:44:36.829Z,0.28
2022-11-15T11:47:23.889Z,0.20
2022-11-15T11:50:11.307Z,0.30
2022-11-15T11:53:13.521Z,0.45
2022-11-15T11:55:47.675Z,1.35
2022-11-15T11:58:20.915Z,0.20
2022-11-15T12:00:53.115Z,0.50
2022-11-15T12:03:39.312Z,0.50
2022-11-15T12:06:28.297Z,0.43
2022-11-15T12:09:22.009Z,0.50
2022-11-15T12:11:56.061Z,0.38
2022-11-15T12:14:48.839Z,0.57
2022-11-15T12:17:20.739Z,0.45
2022-11-15T12:19:48.569Z,0.93
2022-11-15T12:22:35.159Z,0.90
2022-11-15T12:25:08.734Z,0.65
2022-11-15T12:27:43.509Z,0.70
2022-11-15T12:30:15.089Z,1.08
2022-11-15T12:32:55.759Z,1.05
2022-11-15T12:35:44.198Z,1.38
2022-11-15T12:38:12.917Z,0.90
2022-11-15T12:41:26.030Z,1.80
2022-11-15T12:43:53.658Z,1.33
2022-11-15T12:46:30.062Z,0.70
2022-11-15T12:49:24.886Z,0.90
2022-11-15T12:51:53.268Z,1.08
2022-11-15T12:54:23.293Z,1.08
2022-11-15T12:57:16.612Z,0.93
2022-11-15T13:00:05.446Z,0.93
2022-11-15T13:02:46.374Z,1.08
2022-11-15T13:05:16.482Z,1.60
2022-11-15T13:07:43.922Z,0.90
2022-11-15T13:10:14.324Z,0.93
2022-11-15T13:12:47.778Z,1.52
2022-11-15T13:15:15.065Z,0.90
2022-11-15T13:17:48.865Z,1.00
2022-11-15T13:20:15.989Z,1.52
2022-11-15T13:23:00.590Z,1.10
2022-11-15T13:25:37.181Z,1.85
2022-11-15T13:28:11.919Z,1.70
2022-11-15T13:30:39.192Z,1.60
2022-11-15T13:33:16.777Z,1.48
2022-11-15T13:35:49.976Z,1.80
2022-11-15T13:38:28.924Z,1.58
2022-11-15T13:40:57.853Z,1.73
2022-11-15T13:43:32.098Z,1.20
2022-11-15T13:46:18.216Z,1.33
2022-11-15T13:48:47.785Z,1.15
2022-11-15T13:51:33.762Z,1.45
2022-11-15T13:54:13.736Z,1.30
2022-11-15T13:56:58.602Z,1.90
2022-11-15T13:59:30.840Z,1.25
2022-11-15T14:02:00.409Z,1.37
2022-11-15T14:04:30.857Z,2.15
2022-11-15T14:07:00.751Z,1.27
2022-11-15T14:09:41.450Z,1.52
2022-11-15T14:12:30.224Z,1.70
2022-11-15T14:14:58.484Z,1.40
2022-11-15T14:17:31.573Z,1.63
2022-11-15T14:19:59.256Z,1.45
2022-11-15T14:22:31.110Z,1.52
2022-11-15T14:25:20.202Z,5.82
2022-11-15T14:28:09.159Z,2.75
2022-11-15T14:30:36.270Z,2.10
2022-11-15T14:33:20.173Z,1.50
2022-11-15T14:35:52.721Z,5.80
2022-11-15T14:38:20.053Z,2.60
2022-11-15T14:40:47.591Z,2.60
2022-11-15T14:43:16.394Z,1.85
2022-11-15T14:45:44.021Z,1.48
2022-11-15T14:48:11.730Z,5.05
2022-11-15T14:50:39.690Z,4.00
2022-11-15T14:53:07.372Z,2.28
2022-11-15T14:55:37.800Z,1.90
2022-11-15T14:58:06.379Z,1.63
2022-11-15T15:00:35.600Z,2.08
2022-11-15T15:03:04.682Z,1.77
2022-11-15T15:05:43.757Z,1.45
2022-11-15T15:08:11.773Z,1.40
2022-11-15T15:10:42.722Z,1.83
2022-11-15T15:13:21.199Z,1.90
2022-11-15T15:15:49.679Z,2.25
2022-11-15T15:18:17.320Z,1.52
2022-11-15T15:20:46.846Z,2.03
2022-11-15T15:23:19.253Z,1.55
2022-11-15T15:25:48.862Z,1.75
2022-11-15T15:28:16.365Z,1.58
2022-11-15T15:30:43.757Z,2.25
2022-11-15T15:33:10.974Z,2.08
2022-11-15T15:35:38.335Z,1.67
2022-11-15T15:38:05.658Z,1.30
2022-11-15T15:40:34.163Z,1.60
2022-11-15T15:43:01.452Z,1.52
2022-11-15T15:45:30.587Z,2.28
2022-11-15T15:47:57.963Z,1.67
2022-11-15T15:50:29.033Z,2.63
2022-11-15T15:52:59.397Z,1.30
2022-11-15T15:55:29.956Z,1.88
2022-11-15T15:57:58.213Z,2.05
2022-11-15T16:00:26.925Z,1.20
2022-11-15T16:02:54.863Z,1.17
2022-11-15T16:05:23.436Z,1.17
2022-11-15T16:07:50.993Z,1.50
2022-11-15T16:10:21.091Z,2.22
2022-11-15T16:12:48.544Z,2.15
2022-11-15T16:15:16.241Z,2.05
2022-11-15T16:18:00.541Z,2.22
2022-11-15T16:20:31.519Z,2.00
2022-11-15T16:23:03.197Z,2.33
2022-11-15T16:25:39.635Z,3.13
2022-11-15T16:28:15.561Z,1.75
2022-11-15T16:30:42.698Z,1.70
2022-11-15T16:33:09.981Z,2.03
2022-11-15T16:35:37.314Z,1.63
2022-11-15T16:38:04.563Z,2.20
2022-11-15T16:40:34.450Z,1.58
2022-11-15T16:43:03.078Z,2.45
2022-11-15T16:45:31.942Z,2.25
2022-11-15T16:47:59.184Z,2.42
2022-11-15T16:50:31.280Z,1.95
2022-11-15T16:52:59.606Z,2.03
2022-11-15T16:55:29.235Z,1.60
2022-11-15T16:57:59.992Z,1.85
2022-11-15T17:00:27.502Z,1.60
2022-11-15T17:02:56.247Z,1.42
2022-11-15T17:05:24.973Z,1.40
2022-11-15T17:07:54.297Z,2.50
2022-11-15T17:10:23.355Z,2.45
2022-11-15T17:12:51.246Z,2.38
2022-11-15T17:15:19.135Z,2.15
2022-11-15T17:17:53.033Z,1.52
2022-11-15T17:20:23.702Z,1.73
2022-11-15T17:22:56.906Z,2.78
2022-11-15T17:25:24.304Z,2.00
2022-11-15T17:27:51.541Z,2.05
2022-11-15T17:30:20.116Z,2.30
2022-11-15T17:32:47.999Z,2.95
2022-11-15T17:35:16.007Z,2.10
2022-11-15T17:37:43.788Z,1.55
2022-11-15T17:40:11.762Z,1.92
2022-11-15T17:42:42.286Z,2.38
2022-11-15T17:45:11.264Z,2.08
2022-11-15T17:47:38.536Z,2.10
2022-11-15T17:50:06.119Z,1.48
2022-11-15T17:52:33.338Z,1.17
2022-11-15T17:55:00.472Z,1.30
2022-11-15T17:57:27.726Z,1.63
2022-11-15T17:59:55.036Z,1.65
2022-11-15T18:02:22.342Z,1.80
2022-11-15T18:04:49.459Z,1.45
2022-11-15T18:07:16.824Z,0.88
2022-11-15T18:09:44.749Z,1.40
2022-11-15T18:12:13.212Z,1.17
2022-11-15T18:14:42.909Z,1.00
2022-11-15T18:17:10.936Z,1.10
2022-11-15T18:19:43.123Z,1.00
2022-11-15T18:22:11.475Z,1.13
2022-11-15T18:24:39.851Z,1.33
2022-11-15T18:27:08.110Z,1.70
2022-11-15T18:29:37.920Z,1.35
2022-11-15T18:32:11.886Z,0.80
2022-11-15T18:34:39.677Z,0.90
2022-11-15T18:37:07.292Z,1.73
2022-11-15T18:39:34.430Z,1.50
2022-11-15T18:42:01.770Z,1.42
2022-11-15T18:44:30.335Z,1.10
2022-11-15T18:46:57.877Z,1.23
2022-11-15T18:49:25.222Z,1.38
2022-11-15T18:51:52.428Z,1.55
2022-11-15T18:54:19.601Z,1.30
2022-11-15T18:56:47.274Z,1.50
2022-11-15T18:59:15.400Z,0.93
2022-11-15T19:01:47.733Z,1.20
2022-11-15T19:06:47.555Z,2.15
2022-11-15T19:09:17.018Z,1.23
2022-11-15T19:11:45.972Z,1.35
2022-11-15T19:14:15.717Z,1.27
2022-11-15T19:16:52.199Z,1.90
2022-11-15T19:19:25.285Z,2.55
2022-11-15T19:21:53.366Z,4.07
2022-11-15T19:24:21.161Z,2.78
2022-11-15T19:26:48.479Z,3.22
2022-11-15T19:29:17.310Z,1.83
2022-11-15T19:31:45.052Z,2.60
2022-11-15T19:34:13.084Z,2.22
2022-11-15T19:36:42.327Z,2.28
2022-11-15T19:39:13.223Z,3.25
2022-11-15T19:41:43.244Z,3.22
2022-11-15T19:44:11.743Z,2.50
2022-11-15T19:46:39.525Z,2.97
2022-11-15T19:49:11.229Z,1.98
2022-11-15T19:51:41.674Z,2.40
2022-11-15T19:54:10.468Z,2.42
2022-11-15T19:56:40.063Z,2.33
2022-11-15T19:59:12.096Z,2.13
2022-11-15T20:01:40.222Z,1.67
2022-11-15T20:04:10.179Z,2.70
2022-11-15T20:06:41.275Z,2.58
2022-11-15T20:09:12.287Z,3.05
2022-11-15T20:11:39.462Z,3.13
2022-11-15T20:14:08.027Z,2.65
2022-11-15T20:16:35.551Z,2.60
2022-11-15T20:19:05.998Z,2.30
2022-11-15T20:21:33.657Z,1.80
2022-11-15T20:24:01.003Z,1.85
2022-11-15T20:26:29.148Z,3.08
2022-11-15T20:29:06.489Z,2.85
2022-11-15T20:31:33.998Z,2.03
2022-11-15T20:34:01.250Z,1.48
2022-11-15T20:36:29.247Z,1.50
2022-11-15T20:38:58.602Z,2.03
2022-11-15T20:41:27.052Z,1.67
2022-11-15T20:43:54.337Z,1.70
2022-11-15T20:46:21.782Z,1.73
2022-11-15T20:48:50.224Z,2.20
2022-11-15T20:51:18.958Z,1.73
2022-11-15T20:53:46.997Z,1.20
2022-11-15T20:56:18.096Z,2.50
2022-11-15T20:58:46.247Z,1.75
2022-11-15T21:01:15.391Z,1.60
2022-11-15T21:03:42.963Z,1.70
2022-11-15T21:06:11.392Z,1.45
2022-11-15T21:08:57.549Z,2.20
2022-11-15T21:11:43.769Z,2.03
2022-11-15T21:14:11.272Z,2.40
2022-11-15T21:16:39.109Z,1.67
2022-11-15T21:19:06.676Z,2.15
2022-11-15T21:21:35.716Z,2.05
2022-11-15T21:24:08.813Z,2.22
2022-11-15T21:26:36.697Z,1.58
2022-11-15T21:29:04.144Z,1.40
2022-11-15T21:31:32.076Z,1.40
2022-11-15T21:34:02.738Z,1.17
2022-11-15T21:36:30.467Z,1.73
2022-11-15T21:38:57.629Z,1.35
2022-11-15T21:41:24.809Z,1.15
2022-11-15T21:43:51.971Z,1.27
2022-11-15T21:46:19.110Z,1.63
2022-11-15T21:48:46.323Z,1.15
2022-11-15T21:51:13.644Z,1.77
2022-11-15T21:53:41.239Z,1.70
2022-11-15T21:56:09.177Z,2.38
2022-11-15T21:58:36.662Z,2.50
2022-11-15T22:01:23.429Z,1.38
2022-11-15T22:03:50.965Z,2.17
2022-11-15T22:06:18.507Z,1.55
2022-11-15T22:08:46.728Z,1.95
2022-11-15T22:11:14.993Z,1.30
2022-11-15T22:13:42.181Z,1.98
2022-11-15T22:16:10.057Z,2.05
2022-11-15T22:18:38.147Z,1.65
2022-11-15T22:21:09.191Z,1.45
2022-11-15T22:23:37.375Z,1.45
2022-11-15T22:26:05.484Z,1.35
2022-11-15T22:28:32.958Z,1.55
2022-11-15T22:31:00.694Z,1.85
2022-11-15T22:33:29.648Z,1.52
2022-11-15T22:35:57.700Z,1.65
2022-11-15T22:38:25.867Z,3.17
2022-11-15T22:40:53.001Z,2.22
2022-11-15T22:43:22.302Z,1.88
2022-11-15T22:45:53.945Z,2.20
2022-11-15T22:48:23.507Z,1.15
2022-11-15T22:50:50.943Z,1.55
2022-11-15T22:53:20.021Z,1.25
2022-11-15T22:56:01.791Z,1.95
2022-11-15T22:58:34.307Z,1.33
2022-11-15T23:01:04.816Z,1.20
2022-11-15T23:03:33.706Z,1.63
2022-11-15T23:06:03.426Z,1.95
2022-11-15T23:08:30.771Z,1.60
2022-11-15T23:11:22.291Z,1.55
2022-11-15T23:13:52.334Z,2.13
2022-11-15T23:16:24.094Z,1.50
2022-11-15T23:18:53.884Z,1.35
2022-11-15T23:21:42.768Z,2.05
2022-11-15T23:24:11.655Z,1.85
2022-11-15T23:26:39.554Z,1.10
2022-11-15T23:29:09.608Z,0.75
2022-11-15T23:32:01.685Z,1.08
2022-11-15T23:36:58.138Z,0.80
2022-11-15T23:39:25.530Z,0.90
2022-11-15T23:41:52.754Z,0.85
2022-11-15T23:44:19.983Z,1.13
2022-11-15T23:46:47.214Z,0.85
2022-11-15T23:49:14.479Z,1.00
2022-11-15T23:51:41.877Z,0.80
2022-11-15T23:54:09.351Z,1.02
2022-11-15T23:56:36.740Z,1.58
2022-11-15T23:59:04.600Z,1.00
